sensor_id;sensor_type;location;lat;lon;timestamp;P1;durP1;ratioP1;P2;durP2;ratioP2
15183;SDS011;7693;49.266;7.104;2023-07-20T04:42:21;4.28;;;3.88;;
15183;SDS011;7693;49.266;7.104;2023-07-20T04:44:46;3.55;;;3.35;;
15183;SDS011;7693;49.266;7.104;2023-07-20T04:47:12;5.65;;;4.00;;
15183;SDS011;7693;49.266;7.104;2023-07-20T04:49:37;5.43;;;3.53;;
15183;SDS011;7693;49.266;7.104;2023-07-20T04:52:04;3.95;;;3.58;;
15183;SDS011;7693;49.266;7.104;2023-07-20T04:54:30;3.70;;;3.50;;
15183;SDS011;7693;49.266;7.104;2023-07-20T04:56:55;3.20;;;3.10;;
15183;SDS011;7693;49.266;7.104;2023-07-20T04:59:21;4.35;;;3.47;;
15183;SDS011;7693;49.266;7.104;2023-07-20T05:01:46;5.05;;;3.30;;
15183;SDS011;7693;49.266;7.104;2023-07-20T05:04:12;3.42;;;3.22;;
15183;SDS011;7693;49.266;7.104;2023-07-20T05:06:37;3.30;;;3.10;;
15183;SDS011;7693;49.266;7.104;2023-07-20T05:09:04;6.85;;;3.38;;
15183;SDS011;7693;49.266;7.104;2023-07-20T05:11:31;6.35;;;3.35;;
15183;SDS011;7693;49.266;7.104;2023-07-20T05:13:57;3.78;;;3.55;;
15183;SDS011;7693;49.266;7.104;2023-07-20T05:16:22;7.28;;;3.60;;
15183;SDS011;7693;49.266;7.104;2023-07-20T05:18:48;4.40;;;3.53;;
15183;SDS011;7693;49.266;7.104;2023-07-20T05:21:13;3.47;;;3.17;;
15183;SDS011;7693;49.266;7.104;2023-07-20T05:23:39;3.53;;;3.03;;
15183;SDS011;7693;49.266;7.104;2023-07-20T05:26:05;8.55;;;3.42;;
15183;SDS011;7693;49.266;7.104;2023-07-20T05:28:31;4.10;;;3.42;;
15183;SDS011;7693;49.266;7.104;2023-07-20T05:30:56;4.20;;;3.80;;
15183;SDS011;7693;49.266;7.104;2023-07-20T05:33:24;3.72;;;3.42;;
15183;SDS011;7693;49.266;7.104;2023-07-20T05:35:50;4.72;;;3.95;;
15183;SDS011;7693;49.266;7.104;2023-07-20T05:38:15;3.92;;;3.40;;
15183;SDS011;7693;49.266;7.104;2023-07-20T05:40:41;4.03;;;3.50;;
15183;SDS011;7693;49.266;7.104;2023-07-20T05:43:09;4.03;;;3.47;;
15183;SDS011;7693;49.266;7.104;2023-07-20T05:45:35;3.78;;;3.40;;
15183;SDS011;7693;49.266;7.104;2023-07-20T05:48:01;4.20;;;3.78;;
15183;SDS011;7693;49.266;7.104;2023-07-20T05:50:26;3.42;;;3.13;;
15183;SDS011;7693;49.266;7.104;2023-07-20T05:52:53;3.50;;;3.10;;
15183;SDS011;7693;49.266;7.104;2023-07-20T05:55:19;5.97;;;3.55;;
15183;SDS011;7693;49.266;7.104;2023-07-20T05:57:45;4.45;;;4.05;;
15183;SDS011;7693;49.266;7.104;2023-07-20T06:00:10;8.25;;;4.05;;
15183;SDS011;7693;49.266;7.104;2023-07-20T06:02:37;5.43;;;3.63;;
15183;SDS011;7693;49.266;7.104;2023-07-20T06:05:04;4.25;;;3.85;;
15183;SDS011;7693;49.266;7.104;2023-07-20T06:07:30;4.13;;;3.25;;
15183;SDS011;7693;49.266;7.104;2023-07-20T06:09:56;3.63;;;3.25;;
15183;SDS011;7693;49.266;7.104;2023-07-20T06:12:23;5.50;;;3.10;;
15183;SDS011;7693;49.266;7.104;2023-07-20T06:14:48;4.18;;;3.13;;
15183;SDS011;7693;49.266;7.104;2023-07-20T06:17:14;6.28;;;3.35;;
15183;SDS011;7693;49.266;7.104;2023-07-20T06:19:40;3.72;;;2.97;;
15183;SDS011;7693;49.266;7.104;2023-07-20T06:22:05;4.72;;;3.15;;
15183;SDS011;7693;49.266;7.104;2023-07-20T06:24:31;4.97;;;3.15;;
15183;SDS011;7693;49.266;7.104;2023-07-20T06:26:56;7.18;;;3.20;;
15183;SDS011;7693;49.266;7.104;2023-07-20T06:29:22;4.07;;;2.92;;
15183;SDS011;7693;49.266;7.104;2023-07-20T06:31:47;4.78;;;3.38;;
15183;SDS011;7693;49.266;7.104;2023-07-20T06:34:13;6.20;;;3.40;;
15183;SDS011;7693;49.266;7.104;2023-07-20T06:36:39;4.43;;;3.08;;
15183;SDS011;7693;49.266;7.104;2023-07-20T06:39:04;4.18;;;3.03;;
15183;SDS011;7693;49.266;7.104;2023-07-20T06:41:30;6.55;;;4.43;;
15183;SDS011;7693;49.266;7.104;2023-07-20T06:43:58;4.50;;;2.90;;
15183;SDS011;7693;49.266;7.104;2023-07-20T06:46:27;3.50;;;3.20;;
15183;SDS011;7693;49.266;7.104;2023-07-20T06:48:53;7.45;;;3.22;;
15183;SDS011;7693;49.266;7.104;2023-07-20T06:51:19;4.05;;;3.05;;
15183;SDS011;7693;49.266;7.104;2023-07-20T06:53:47;4.57;;;3.10;;
15183;SDS011;7693;49.266;7.104;2023-07-20T06:56:13;5.90;;;3.30;;
15183;SDS011;7693;49.266;7.104;2023-07-20T06:58:39;4.72;;;3.42;;
15183;SDS011;7693;49.266;7.104;2023-07-20T07:01:08;3.22;;;2.88;;
15183;SDS011;7693;49.266;7.104;2023-07-20T07:03:33;3.83;;;3.10;;
15183;SDS011;7693;49.266;7.104;2023-07-20T07:05:59;3.53;;;3.00;;
15183;SDS011;7693;49.266;7.104;2023-07-20T07:08:25;5.50;;;3.03;;
15183;SDS011;7693;49.266;7.104;2023-07-20T07:10:51;8.52;;;2.88;;
15183;SDS011;7693;49.266;7.104;2023-07-20T07:13:17;3.78;;;2.50;;
15183;SDS011;7693;49.266;7.104;2023-07-20T07:15:44;4.88;;;2.60;;
15183;SDS011;7693;49.266;7.104;2023-07-20T07:18:10;6.20;;;3.00;;
15183;SDS011;7693;49.266;7.104;2023-07-20T07:20:36;3.33;;;2.60;;
15183;SDS011;7693;49.266;7.104;2023-07-20T07:23:01;2.53;;;2.38;;
15183;SDS011;7693;49.266;7.104;2023-07-20T07:25:27;2.80;;;2.65;;
15183;SDS011;7693;49.266;7.104;2023-07-20T07:27:53;2.67;;;2.47;;
15183;SDS011;7693;49.266;7.104;2023-07-20T07:30:20;2.95;;;2.63;;
15183;SDS011;7693;49.266;7.104;2023-07-20T07:32:46;4.28;;;2.40;;
15183;SDS011;7693;49.266;7.104;2023-07-20T07:35:11;3.25;;;2.78;;
15183;SDS011;7693;49.266;7.104;2023-07-20T07:37:37;3.58;;;2.58;;
15183;SDS011;7693;49.266;7.104;2023-07-20T07:40:03;3.03;;;2.55;;
15183;SDS011;7693;49.266;7.104;2023-07-20T07:42:30;3.78;;;2.10;;
15183;SDS011;7693;49.266;7.104;2023-07-20T07:44:56;2.55;;;2.22;;
15183;SDS011;7693;49.266;7.104;2023-07-20T07:47:22;1.88;;;1.77;;
15183;SDS011;7693;49.266;7.104;2023-07-20T07:49:47;3.13;;;2.30;;
15183;SDS011;7693;49.266;7.104;2023-07-20T07:52:13;6.25;;;2.15;;
15183;SDS011;7693;49.266;7.104;2023-07-20T07:54:39;2.65;;;2.35;;
15183;SDS011;7693;49.266;7.104;2023-07-20T07:57:05;3.58;;;2.30;;
15183;SDS011;7693;49.266;7.104;2023-07-20T07:59:31;2.78;;;2.15;;
15183;SDS011;7693;49.266;7.104;2023-07-20T08:02:01;3.45;;;2.08;;
15183;SDS011;7693;49.266;7.104;2023-07-20T08:04:27;3.90;;;2.40;;
15183;SDS011;7693;49.266;7.104;2023-07-20T08:06:53;3.90;;;2.30;;
15183;SDS011;7693;49.266;7.104;2023-07-20T08:09:18;2.30;;;2.10;;
15183;SDS011;7693;49.266;7.104;2023-07-20T08:11:44;3.15;;;2.42;;
15183;SDS011;7693;49.266;7.104;2023-07-20T08:14:13;5.18;;;2.20;;
15183;SDS011;7693;49.266;7.104;2023-07-20T08:16:38;5.20;;;2.45;;
15183;SDS011;7693;49.266;7.104;2023-07-20T08:19:08;2.40;;;2.25;;
15183;SDS011;7693;49.266;7.104;2023-07-20T08:21:33;4.60;;;2.35;;
15183;SDS011;7693;49.266;7.104;2023-07-20T08:23:59;2.50;;;2.30;;
15183;SDS011;7693;49.266;7.104;2023-07-20T08:26:24;4.80;;;2.30;;
15183;SDS011;7693;49.266;7.104;2023-07-20T08:28:50;3.22;;;2.00;;
15183;SDS011;7693;49.266;7.104;2023-07-20T08:31:15;2.15;;;1.98;;
15183;SDS011;7693;49.266;7.104;2023-07-20T08:33:41;2.90;;;2.25;;
15183;SDS011;7693;49.266;7.104;2023-07-20T08:36:07;3.80;;;2.17;;
15183;SDS011;7693;49.266;7.104;2023-07-20T08:38:33;5.43;;;2.08;;
15183;SDS011;7693;49.266;7.104;2023-07-20T08:40:59;4.35;;;2.42;;
15183;SDS011;7693;49.266;7.104;2023-07-20T08:43:26;2.30;;;2.20;;
15183;SDS011;7693;49.266;7.104;2023-07-20T08:45:55;3.75;;;2.40;;
15183;SDS011;7693;49.266;7.104;2023-07-20T08:48:22;3.08;;;2.30;;
15183;SDS011;7693;49.266;7.104;2023-07-20T08:50:49;2.13;;;2.03;;
15183;SDS011;7693;49.266;7.104;2023-07-20T08:53:16;2.50;;;2.30;;
15183;SDS011;7693;49.266;7.104;2023-07-20T08:55:43;2.20;;;2.00;;
15183;SDS011;7693;49.266;7.104;2023-07-20T08:58:12;2.45;;;1.92;;
15183;SDS011;7693;49.266;7.104;2023-07-20T09:00:39;5.03;;;2.10;;
15183;SDS011;7693;49.266;7.104;2023-07-20T09:03:06;2.50;;;2.30;;
15183;SDS011;7693;49.266;7.104;2023-07-20T09:05:31;2.53;;;2.33;;
15183;SDS011;7693;49.266;7.104;2023-07-20T09:07:57;2.13;;;2.03;;
15183;SDS011;7693;49.266;7.104;2023-07-20T09:10:23;3.25;;;2.30;;
15183;SDS011;7693;49.266;7.104;2023-07-20T09:12:49;3.55;;;2.50;;
15183;SDS011;7693;49.266;7.104;2023-07-20T09:15:15;2.65;;;2.28;;
15183;SDS011;7693;49.266;7.104;2023-07-20T09:17:45;3.15;;;2.00;;
15183;SDS011;7693;49.266;7.104;2023-07-20T09:20:14;2.85;;;2.17;;
15183;SDS011;7693;49.266;7.104;2023-07-20T09:22:40;5.10;;;2.28;;
15183;SDS011;7693;49.266;7.104;2023-07-20T09:27:38;3.72;;;2.25;;
15183;SDS011;7693;49.266;7.104;2023-07-20T09:30:06;2.38;;;2.28;;
15183;SDS011;7693;49.266;7.104;2023-07-20T09:32:38;2.67;;;1.90;;
15183;SDS011;7693;49.266;7.104;2023-07-20T09:35:12;2.28;;;1.95;;
15183;SDS011;7693;49.266;7.104;2023-07-20T09:38:00;2.30;;;2.08;;
15183;SDS011;7693;49.266;7.104;2023-07-20T09:40:26;2.50;;;2.38;;
15183;SDS011;7693;49.266;7.104;2023-07-20T09:42:53;4.40;;;2.35;;
15183;SDS011;7693;49.266;7.104;2023-07-20T09:45:27;2.33;;;2.13;;
15183;SDS011;7693;49.266;7.104;2023-07-20T09:48:02;2.05;;;1.90;;
15183;SDS011;7693;49.266;7.104;2023-07-20T09:50:29;2.13;;;2.00;;
15183;SDS011;7693;49.266;7.104;2023-07-20T09:52:55;3.33;;;2.00;;
15183;SDS011;7693;49.266;7.104;2023-07-20T09:55:22;1.98;;;1.88;;
15183;SDS011;7693;49.266;7.104;2023-07-20T09:57:49;2.50;;;2.30;;
15183;SDS011;7693;49.266;7.104;2023-07-20T12:57:16;1.88;;;1.60;;
15183;SDS011;7693;49.266;7.104;2023-07-20T12:59:42;4.20;;;1.80;;
15183;SDS011;7693;49.266;7.104;2023-07-20T13:02:07;3.85;;;1.40;;
15183;SDS011;7693;49.266;7.104;2023-07-20T13:04:33;1.48;;;1.38;;
15183;SDS011;7693;49.266;7.104;2023-07-20T13:06:58;3.22;;;1.50;;
15183;SDS011;7693;49.266;7.104;2023-07-20T13:09:24;1.40;;;1.40;;
15183;SDS011;7693;49.266;7.104;2023-07-20T13:11:50;4.07;;;1.83;;
15183;SDS011;7693;49.266;7.104;2023-07-20T13:14:17;1.58;;;1.58;;
15183;SDS011;7693;49.266;7.104;2023-07-20T13:16:43;1.40;;;1.30;;
15183;SDS011;7693;49.266;7.104;2023-07-20T13:19:08;2.40;;;1.63;;
15183;SDS011;7693;49.266;7.104;2023-07-20T13:21:34;2.00;;;1.50;;
15183;SDS011;7693;49.266;7.104;2023-07-20T13:24:00;2.28;;;1.63;;
15183;SDS011;7693;49.266;7.104;2023-07-20T13:26:25;1.35;;;1.35;;
15183;SDS011;7693;49.266;7.104;2023-07-20T13:28:51;2.92;;;1.40;;
15183;SDS011;7693;49.266;7.104;2023-07-20T13:31:17;1.73;;;1.63;;
15183;SDS011;7693;49.266;7.104;2023-07-20T13:33:42;1.65;;;1.50;;
15183;SDS011;7693;49.266;7.104;2023-07-20T13:36:08;1.60;;;1.50;;
15183;SDS011;7693;49.266;7.104;2023-07-20T13:38:33;1.55;;;1.45;;
15183;SDS011;7693;49.266;7.104;2023-07-20T13:40:59;1.30;;;1.30;;
15183;SDS011;7693;49.266;7.104;2023-07-20T13:43:24;1.55;;;1.45;;
15183;SDS011;7693;49.266;7.104;2023-07-20T13:45:50;2.13;;;1.58;;
15183;SDS011;7693;49.266;7.104;2023-07-20T13:48:16;1.40;;;1.40;;
15183;SDS011;7693;49.266;7.104;2023-07-20T13:50:44;2.70;;;1.48;;
15183;SDS011;7693;49.266;7.104;2023-07-20T13:53:10;1.60;;;1.50;;
15183;SDS011;7693;49.266;7.104;2023-07-20T13:55:36;1.67;;;1.38;;
15183;SDS011;7693;49.266;7.104;2023-07-20T13:58:03;4.65;;;1.48;;
15183;SDS011;7693;49.266;7.104;2023-07-20T14:00:29;3.58;;;1.50;;
15183;SDS011;7693;49.266;7.104;2023-07-20T14:02:58;3.53;;;1.50;;
15183;SDS011;7693;49.266;7.104;2023-07-20T14:05:26;2.85;;;1.40;;
15183;SDS011;7693;49.266;7.104;2023-07-20T14:07:53;1.60;;;1.50;;
15183;SDS011;7693;49.266;7.104;2023-07-20T14:10:19;2.58;;;1.48;;
15183;SDS011;7693;49.266;7.104;2023-07-20T14:12:44;1.25;;;1.25;;
15183;SDS011;7693;49.266;7.104;2023-07-20T14:15:10;4.05;;;1.20;;
15183;SDS011;7693;49.266;7.104;2023-07-20T14:17:36;2.15;;;1.40;;
15183;SDS011;7693;49.266;7.104;2023-07-20T14:20:02;1.23;;;1.20;;
15183;SDS011;7693;49.266;7.104;2023-07-20T14:22:30;1.60;;;1.50;;
15183;SDS011;7693;49.266;7.104;2023-07-20T14:24:56;2.13;;;1.70;;
15183;SDS011;7693;49.266;7.104;2023-07-20T14:27:22;1.48;;;1.38;;
15183;SDS011;7693;49.266;7.104;2023-07-20T14:29:47;3.90;;;1.40;;
15183;SDS011;7693;49.266;7.104;2023-07-20T14:32:13;1.40;;;1.30;;
15183;SDS011;7693;49.266;7.104;2023-07-20T14:34:39;2.25;;;1.30;;
15183;SDS011;7693;49.266;7.104;2023-07-20T14:37:06;1.42;;;1.38;;
15183;SDS011;7693;49.266;7.104;2023-07-20T14:39:32;3.38;;;1.45;;
15183;SDS011;7693;49.266;7.104;2023-07-20T14:41:57;2.00;;;1.30;;
15183;SDS011;7693;49.266;7.104;2023-07-20T14:44:23;1.30;;;1.20;;
15183;SDS011;7693;49.266;7.104;2023-07-20T14:46:49;2.58;;;1.20;;
15183;SDS011;7693;49.266;7.104;2023-07-20T14:49:16;1.60;;;1.50;;
15183;SDS011;7693;49.266;7.104;2023-07-20T14:51:43;1.35;;;1.25;;
15183;SDS011;7693;49.266;7.104;2023-07-20T14:54:11;1.40;;;1.27;;
15183;SDS011;7693;49.266;7.104;2023-07-20T14:56:37;1.30;;;1.30;;
15183;SDS011;7693;49.266;7.104;2023-07-20T14:59:03;2.45;;;1.30;;
15183;SDS011;7693;49.266;7.104;2023-07-20T15:01:30;1.67;;;1.20;;
15183;SDS011;7693;49.266;7.104;2023-07-20T15:03:56;2.80;;;1.30;;
15183;SDS011;7693;49.266;7.104;2023-07-20T15:06:22;1.33;;;1.33;;
15183;SDS011;7693;49.266;7.104;2023-07-20T15:08:48;1.38;;;1.23;;
15183;SDS011;7693;49.266;7.104;2023-07-20T15:11:14;1.52;;;1.42;;
15183;SDS011;7693;49.266;7.104;2023-07-20T15:13:39;2.83;;;1.30;;
15183;SDS011;7693;49.266;7.104;2023-07-20T15:16:07;1.30;;;1.20;;
15183;SDS011;7693;49.266;7.104;2023-07-20T15:18:34;1.30;;;1.30;;
15183;SDS011;7693;49.266;7.104;2023-07-20T15:21:00;1.40;;;1.40;;
15183;SDS011;7693;49.266;7.104;2023-07-20T15:23:25;2.05;;;1.30;;
15183;SDS011;7693;49.266;7.104;2023-07-20T15:25:51;1.17;;;1.17;;
15183;SDS011;7693;49.266;7.104;2023-07-20T15:28:16;1.70;;;1.60;;
15183;SDS011;7693;49.266;7.104;2023-07-20T15:30:42;2.00;;;1.40;;
15183;SDS011;7693;49.266;7.104;2023-07-20T15:33:07;1.65;;;1.55;;
15183;SDS011;7693;49.266;7.104;2023-07-20T15:35:33;6.63;;;1.58;;
15183;SDS011;7693;49.266;7.104;2023-07-20T15:37:58;1.40;;;1.40;;
15183;SDS011;7693;49.266;7.104;2023-07-20T15:40:24;1.40;;;1.30;;
15183;SDS011;7693;49.266;7.104;2023-07-20T15:42:50;1.23;;;1.23;;
15183;SDS011;7693;49.266;7.104;2023-07-20T15:45:15;1.50;;;1.40;;
15183;SDS011;7693;49.266;7.104;2023-07-20T15:47:41;1.27;;;1.20;;
15183;SDS011;7693;49.266;7.104;2023-07-20T15:50:06;2.47;;;1.35;;
15183;SDS011;7693;49.266;7.104;2023-07-20T15:52:32;2.70;;;1.35;;
15183;SDS011;7693;49.266;7.104;2023-07-20T15:54:58;1.42;;;1.40;;
15183;SDS011;7693;49.266;7.104;2023-07-20T15:57:23;4.60;;;1.52;;
15183;SDS011;7693;49.266;7.104;2023-07-20T15:59:49;1.33;;;1.30;;
15183;SDS011;7693;49.266;7.104;2023-07-20T16:02:15;3.70;;;1.40;;
15183;SDS011;7693;49.266;7.104;2023-07-20T16:04:40;3.33;;;1.67;;
15183;SDS011;7693;49.266;7.104;2023-07-20T16:07:10;2.15;;;1.50;;
15183;SDS011;7693;49.266;7.104;2023-07-20T16:09:35;1.35;;;1.30;;
15183;SDS011;7693;49.266;7.104;2023-07-20T16:12:02;2.47;;;1.30;;
15183;SDS011;7693;49.266;7.104;2023-07-20T16:14:28;1.92;;;1.20;;
15183;SDS011;7693;49.266;7.104;2023-07-20T16:16:54;1.70;;;1.50;;
15183;SDS011;7693;49.266;7.104;2023-07-20T16:19:20;2.25;;;1.33;;
15183;SDS011;7693;49.266;7.104;2023-07-20T16:21:46;1.20;;;1.20;;
15183;SDS011;7693;49.266;7.104;2023-07-20T16:24:11;2.22;;;1.40;;
15183;SDS011;7693;49.266;7.104;2023-07-20T16:26:37;1.48;;;1.38;;
15183;SDS011;7693;49.266;7.104;2023-07-20T16:29:08;1.40;;;1.40;;
15183;SDS011;7693;49.266;7.104;2023-07-20T16:31:34;1.10;;;1.10;;
15183;SDS011;7693;49.266;7.104;2023-07-20T16:34:00;1.35;;;1.27;;
15183;SDS011;7693;49.266;7.104;2023-07-20T16:36:26;1.50;;;1.30;;
15183;SDS011;7693;49.266;7.104;2023-07-20T16:38:52;1.50;;;1.40;;
15183;SDS011;7693;49.266;7.104;2023-07-20T16:41:17;2.13;;;1.73;;
15183;SDS011;7693;49.266;7.104;2023-07-20T16:43:43;1.95;;;1.33;;
15183;SDS011;7693;49.266;7.104;2023-07-20T16:46:08;1.42;;;1.33;;
15183;SDS011;7693;49.266;7.104;2023-07-20T16:48:35;2.42;;;1.20;;
15183;SDS011;7693;49.266;7.104;2023-07-20T16:51:01;4.20;;;1.40;;
15183;SDS011;7693;49.266;7.104;2023-07-20T16:53:27;1.30;;;1.20;;
15183;SDS011;7693;49.266;7.104;2023-07-20T16:55:53;1.40;;;1.30;;
15183;SDS011;7693;49.266;7.104;2023-07-20T16:58:22;1.52;;;1.40;;
15183;SDS011;7693;49.266;7.104;2023-07-20T17:00:50;2.28;;;1.17;;
15183;SDS011;7693;49.266;7.104;2023-07-20T17:03:16;1.67;;;1.40;;
15183;SDS011;7693;49.266;7.104;2023-07-20T17:05:42;1.58;;;1.40;;
15183;SDS011;7693;49.266;7.104;2023-07-20T17:08:08;3.60;;;1.30;;
15183;SDS011;7693;49.266;7.104;2023-07-20T17:10:34;2.03;;;1.30;;
15183;SDS011;7693;49.266;7.104;2023-07-20T17:13:01;1.30;;;1.30;;
15183;SDS011;7693;49.266;7.104;2023-07-20T17:15:28;1.35;;;1.35;;
15183;SDS011;7693;49.266;7.104;2023-07-20T17:17:53;2.50;;;1.42;;
15183;SDS011;7693;49.266;7.104;2023-07-20T17:20:19;1.33;;;1.33;;
15183;SDS011;7693;49.266;7.104;2023-07-20T17:22:45;3.28;;;1.30;;
15183;SDS011;7693;49.266;7.104;2023-07-20T17:25:11;1.35;;;1.33;;
15183;SDS011;7693;49.266;7.104;2023-07-20T17:27:38;2.70;;;1.58;;
15183;SDS011;7693;49.266;7.104;2023-07-20T17:30:04;2.05;;;1.35;;
15183;SDS011;7693;49.266;7.104;2023-07-20T17:32:33;1.52;;;1.30;;
15183;SDS011;7693;49.266;7.104;2023-07-20T17:34:58;3.83;;;1.50;;
15183;SDS011;7693;49.266;7.104;2023-07-20T17:37:24;2.63;;;1.40;;
15183;SDS011;7693;49.266;7.104;2023-07-20T17:39:49;1.95;;;1.58;;
15183;SDS011;7693;49.266;7.104;2023-07-20T17:42:16;1.42;;;1.30;;
15183;SDS011;7693;49.266;7.104;2023-07-20T17:44:41;1.20;;;1.20;;
15183;SDS011;7693;49.266;7.104;2023-07-20T17:47:07;3.17;;;1.30;;
15183;SDS011;7693;49.266;7.104;2023-07-20T17:49:33;1.30;;;1.30;;
15183;SDS011;7693;49.266;7.104;2023-07-20T17:51:59;2.00;;;1.20;;
15183;SDS011;7693;49.266;7.104;2023-07-20T17:54:25;2.60;;;1.58;;
15183;SDS011;7693;49.266;7.104;2023-07-20T17:56:50;1.45;;;1.40;;
15183;SDS011;7693;49.266;7.104;2023-07-20T17:59:16;1.48;;;1.38;;
15183;SDS011;7693;49.266;7.104;2023-07-20T18:01:41;1.58;;;1.35;;
15183;SDS011;7693;49.266;7.104;2023-07-20T18:04:07;1.15;;;1.15;;
15183;SDS011;7693;49.266;7.104;2023-07-20T18:06:32;1.65;;;1.20;;
15183;SDS011;7693;49.266;7.104;2023-07-20T18:08:58;3.75;;;1.40;;
15183;SDS011;7693;49.266;7.104;2023-07-20T18:11:23;1.45;;;1.35;;
15183;SDS011;7693;49.266;7.104;2023-07-20T18:13:49;1.60;;;1.50;;
15183;SDS011;7693;49.266;7.104;2023-07-20T18:16:15;1.67;;;1.48;;
15183;SDS011;7693;49.266;7.104;2023-07-20T18:18:41;1.63;;;1.33;;
15183;SDS011;7693;49.266;7.104;2023-07-20T18:21:06;1.40;;;1.38;;
15183;SDS011;7693;49.266;7.104;2023-07-20T18:23:32;1.60;;;1.30;;
15183;SDS011;7693;49.266;7.104;2023-07-20T18:25:58;1.58;;;1.48;;
15183;SDS011;7693;49.266;7.104;2023-07-20T18:28:23;1.42;;;1.30;;
15183;SDS011;7693;49.266;7.104;2023-07-20T18:30:49;1.10;;;1.10;;
15183;SDS011;7693;49.266;7.104;2023-07-20T18:33:15;1.55;;;1.55;;
15183;SDS011;7693;49.266;7.104;2023-07-20T18:35:41;3.92;;;1.50;;
15183;SDS011;7693;49.266;7.104;2023-07-20T18:38:07;3.45;;;1.25;;
15183;SDS011;7693;49.266;7.104;2023-07-20T18:40:33;2.47;;;1.52;;
15183;SDS011;7693;49.266;7.104;2023-07-20T18:42:58;3.63;;;1.63;;
15183;SDS011;7693;49.266;7.104;2023-07-20T18:45:24;1.45;;;1.45;;
15183;SDS011;7693;49.266;7.104;2023-07-20T18:47:49;1.60;;;1.50;;
15183;SDS011;7693;49.266;7.104;2023-07-20T18:50:16;1.60;;;1.45;;
15183;SDS011;7693;49.266;7.104;2023-07-20T18:52:42;1.60;;;1.35;;
15183;SDS011;7693;49.266;7.104;2023-07-20T18:55:08;2.00;;;1.67;;
15183;SDS011;7693;49.266;7.104;2023-07-20T18:57:34;1.95;;;1.45;;
15183;SDS011;7693;49.266;7.104;2023-07-20T19:00:03;1.38;;;1.30;;
15183;SDS011;7693;49.266;7.104;2023-07-20T19:02:29;3.17;;;1.42;;
15183;SDS011;7693;49.266;7.104;2023-07-20T19:04:55;7.35;;;1.88;;
15183;SDS011;7693;49.266;7.104;2023-07-20T19:07:22;1.52;;;1.40;;
15183;SDS011;7693;49.266;7.104;2023-07-20T19:09:48;2.33;;;1.42;;
15183;SDS011;7693;49.266;7.104;2023-07-20T19:12:14;3.15;;;1.33;;
15183;SDS011;7693;49.266;7.104;2023-07-20T19:14:40;3.42;;;1.38;;
15183;SDS011;7693;49.266;7.104;2023-07-20T19:17:06;2.35;;;1.60;;
15183;SDS011;7693;49.266;7.104;2023-07-20T19:19:32;1.50;;;1.50;;
15183;SDS011;7693;49.266;7.104;2023-07-20T19:21:57;2.45;;;1.40;;
15183;SDS011;7693;49.266;7.104;2023-07-20T19:24:23;1.80;;;1.70;;
15183;SDS011;7693;49.266;7.104;2023-07-20T19:26:49;2.05;;;1.20;;
15183;SDS011;7693;49.266;7.104;2023-07-20T19:29:15;1.60;;;1.55;;
15183;SDS011;7693;49.266;7.104;2023-07-20T19:31:41;1.92;;;1.77;;
15183;SDS011;7693;49.266;7.104;2023-07-20T19:34:06;2.30;;;1.40;;
15183;SDS011;7693;49.266;7.104;2023-07-20T19:36:32;1.70;;;1.60;;
15183;SDS011;7693;49.266;7.104;2023-07-20T19:38:58;2.38;;;2.15;;
15183;SDS011;7693;49.266;7.104;2023-07-20T19:41:24;4.82;;;1.73;;
15183;SDS011;7693;49.266;7.104;2023-07-20T19:43:50;1.67;;;1.58;;
15183;SDS011;7693;49.266;7.104;2023-07-20T19:46:16;1.35;;;1.35;;
15183;SDS011;7693;49.266;7.104;2023-07-20T19:48:41;1.50;;;1.40;;
15183;SDS011;7693;49.266;7.104;2023-07-20T19:51:07;1.60;;;1.48;;
15183;SDS011;7693;49.266;7.104;2023-07-20T19:53:33;1.63;;;1.52;;
15183;SDS011;7693;49.266;7.104;2023-07-20T19:55:59;1.52;;;1.20;;
15183;SDS011;7693;49.266;7.104;2023-07-20T19:58:26;1.45;;;1.45;;
15183;SDS011;7693;49.266;7.104;2023-07-20T20:00:52;1.80;;;1.40;;
15183;SDS011;7693;49.266;7.104;2023-07-20T20:03:18;2.80;;;1.60;;
15183;SDS011;7693;49.266;7.104;2023-07-20T20:05:43;1.58;;;1.48;;
15183;SDS011;7693;49.266;7.104;2023-07-20T20:08:09;1.60;;;1.58;;
15183;SDS011;7693;49.266;7.104;2023-07-20T20:10:36;1.88;;;1.77;;
15183;SDS011;7693;49.266;7.104;2023-07-20T20:13:02;1.95;;;1.85;;
15183;SDS011;7693;49.266;7.104;2023-07-20T20:15:28;2.08;;;1.50;;
15183;SDS011;7693;49.266;7.104;2023-07-20T20:17:54;1.88;;;1.70;;
15183;SDS011;7693;49.266;7.104;2023-07-20T20:20:21;1.80;;;1.70;;
15183;SDS011;7693;49.266;7.104;2023-07-20T20:22:47;2.20;;;1.83;;
15183;SDS011;7693;49.266;7.104;2023-07-20T20:25:13;1.60;;;1.50;;
15183;SDS011;7693;49.266;7.104;2023-07-20T20:27:39;1.70;;;1.70;;
15183;SDS011;7693;49.266;7.104;2023-07-20T20:30:05;1.98;;;1.70;;
15183;SDS011;7693;49.266;7.104;2023-07-20T20:32:32;1.50;;;1.40;;
15183;SDS011;7693;49.266;7.104;2023-07-20T20:35:02;1.60;;;1.50;;
15183;SDS011;7693;49.266;7.104;2023-07-20T20:37:29;1.88;;;1.60;;
15183;SDS011;7693;49.266;7.104;2023-07-20T20:39:54;1.88;;;1.60;;
15183;SDS011;7693;49.266;7.104;2023-07-20T20:42:21;2.67;;;1.35;;
15183;SDS011;7693;49.266;7.104;2023-07-20T20:44:47;1.58;;;1.55;;
15183;SDS011;7693;49.266;7.104;2023-07-20T20:47:12;3.17;;;1.48;;
15183;SDS011;7693;49.266;7.104;2023-07-20T20:49:38;1.88;;;1.65;;
15183;SDS011;7693;49.266;7.104;2023-07-20T20:52:10;1.40;;;1.40;;
15183;SDS011;7693;49.266;7.104;2023-07-20T20:54:36;1.73;;;1.50;;
15183;SDS011;7693;49.266;7.104;2023-07-20T20:57:02;1.20;;;1.20;;
15183;SDS011;7693;49.266;7.104;2023-07-20T20:59:28;1.60;;;1.50;;
15183;SDS011;7693;49.266;7.104;2023-07-20T21:01:54;2.53;;;1.58;;
15183;SDS011;7693;49.266;7.104;2023-07-20T21:04:19;2.75;;;1.42;;
15183;SDS011;7693;49.266;7.104;2023-07-20T21:06:45;1.42;;;1.33;;
15183;SDS011;7693;49.266;7.104;2023-07-20T21:09:10;2.75;;;1.60;;
15183;SDS011;7693;49.266;7.104;2023-07-20T21:11:36;2.78;;;1.70;;
15183;SDS011;7693;49.266;7.104;2023-07-20T21:14:01;2.30;;;1.38;;
15183;SDS011;7693;49.266;7.104;2023-07-20T21:16:27;1.95;;;1.85;;
15183;SDS011;7693;49.266;7.104;2023-07-20T21:18:53;1.52;;;1.40;;
15183;SDS011;7693;49.266;7.104;2023-07-20T21:21:18;2.38;;;1.30;;
15183;SDS011;7693;49.266;7.104;2023-07-20T21:23:44;1.40;;;1.30;;
15183;SDS011;7693;49.266;7.104;2023-07-20T21:26:10;1.40;;;1.40;;
15183;SDS011;7693;49.266;7.104;2023-07-20T21:28:35;1.50;;;1.40;;
15183;SDS011;7693;49.266;7.104;2023-07-20T21:31:06;5.13;;;1.30;;
15183;SDS011;7693;49.266;7.104;2023-07-20T21:33:32;2.88;;;1.80;;
15183;SDS011;7693;49.266;7.104;2023-07-20T21:35:58;1.60;;;1.60;;
15183;SDS011;7693;49.266;7.104;2023-07-20T21:38:25;3.25;;;1.40;;
15183;SDS011;7693;49.266;7.104;2023-07-20T21:40:51;1.52;;;1.42;;
15183;SDS011;7693;49.266;7.104;2023-07-20T21:43:17;2.15;;;1.80;;
15183;SDS011;7693;49.266;7.104;2023-07-20T21:45:45;1.48;;;1.45;;
15183;SDS011;7693;49.266;7.104;2023-07-20T21:48:11;1.60;;;1.50;;
15183;SDS011;7693;49.266;7.104;2023-07-20T21:50:37;1.40;;;1.40;;
15183;SDS011;7693;49.266;7.104;2023-07-20T21:53:03;2.92;;;1.60;;
15183;SDS011;7693;49.266;7.104;2023-07-20T21:55:32;2.17;;;1.80;;
15183;SDS011;7693;49.266;7.104;2023-07-20T21:57:57;1.50;;;1.40;;
15183;SDS011;7693;49.266;7.104;2023-07-20T22:00:23;2.25;;;1.80;;
15183;SDS011;7693;49.266;7.104;2023-07-20T22:02:49;1.65;;;1.55;;
15183;SDS011;7693;49.266;7.104;2023-07-20T22:05:15;1.70;;;1.60;;
15183;SDS011;7693;49.266;7.104;2023-07-20T22:07:42;1.45;;;1.45;;
15183;SDS011;7693;49.266;7.104;2023-07-20T22:10:08;3.30;;;1.60;;
15183;SDS011;7693;49.266;7.104;2023-07-20T22:12:34;1.67;;;1.63;;
15183;SDS011;7693;49.266;7.104;2023-07-20T22:14:59;1.70;;;1.60;;
15183;SDS011;7693;49.266;7.104;2023-07-20T22:17:25;1.73;;;1.63;;
15183;SDS011;7693;49.266;7.104;2023-07-20T22:19:51;1.83;;;1.73;;
15183;SDS011;7693;49.266;7.104;2023-07-20T22:22:16;1.67;;;1.60;;
15183;SDS011;7693;49.266;7.104;2023-07-20T22:24:43;1.85;;;1.75;;
15183;SDS011;7693;49.266;7.104;2023-07-20T22:27:08;1.92;;;1.83;;
15183;SDS011;7693;49.266;7.104;2023-07-20T22:29:34;1.83;;;1.73;;
15183;SDS011;7693;49.266;7.104;2023-07-20T22:32:01;2.97;;;1.98;;
15183;SDS011;7693;49.266;7.104;2023-07-20T22:34:30;2.47;;;2.03;;